createdAt,value
2018-10-12T00:01:48.995Z,55.60
2018-10-12T00:04:19.188Z,55.60
2018-10-12T00:06:48.061Z,55.70
2018-10-12T00:09:16.871Z,55.70
2018-10-12T00:11:45.448Z,55.80
2018-10-12T00:14:14.443Z,55.70
2018-10-12T00:16:43.272Z,55.90
2018-10-12T00:19:23.653Z,56.10
2018-10-12T00:21:52.705Z,55.90
2018-10-12T00:24:21.515Z,55.90
2018-10-12T00:26:51.081Z,56.10
2018-10-12T00:29:19.779Z,56.10
2018-10-12T00:31:49.840Z,56.20
2018-10-12T00:34:19.377Z,56.30
2018-10-12T00:36:47.982Z,56.40
2018-10-12T00:39:16.539Z,56.40
2018-10-12T00:41:45.092Z,56.40
2018-10-12T00:44:13.736Z,56.50
2018-10-12T00:46:48.196Z,56.50
2018-10-12T00:49:16.891Z,56.50
2018-10-12T00:51:45.532Z,56.60
2018-10-12T00:54:14.439Z,56.60
2018-10-12T00:56:43.016Z,56.70
2018-10-12T00:59:11.484Z,56.80
2018-10-12T01:01:39.958Z,56.80
2018-10-12T01:04:09.312Z,56.90
2018-10-12T01:06:39.281Z,56.80
2018-10-12T01:09:08.488Z,56.80
2018-10-12T01:11:36.971Z,56.80
2018-10-12T01:14:06.500Z,56.80
2018-10-12T01:16:37.015Z,56.90
2018-10-12T01:19:07.587Z,56.90
2018-10-12T01:21:37.271Z,56.90
2018-10-12T01:24:07.529Z,56.90
2018-10-12T01:26:36.848Z,56.90
2018-10-12T01:29:07.004Z,56.90
2018-10-12T01:31:38.463Z,57.00
2018-10-12T01:34:08.339Z,57.10
2018-10-12T01:36:38.088Z,57.00
2018-10-12T01:39:13.857Z,57.10
2018-10-12T01:41:43.027Z,57.10
2018-10-12T01:44:12.621Z,57.10
2018-10-12T01:46:42.068Z,57.20
2018-10-12T01:49:12.739Z,57.20
2018-10-12T01:51:47.070Z,57.20
2018-10-12T01:54:16.713Z,57.20
2018-10-12T01:56:45.801Z,57.20
2018-10-12T01:59:14.917Z,57.30
2018-10-12T02:01:44.204Z,57.20
2018-10-12T02:04:14.300Z,57.90
2018-10-12T02:06:43.819Z,57.30
2018-10-12T02:09:13.422Z,57.40
2018-10-12T02:11:43.548Z,57.40
2018-10-12T02:14:13.190Z,57.50
2018-10-12T02:16:44.918Z,57.50
2018-10-12T02:19:14.794Z,57.60
2018-10-12T02:21:53.195Z,57.50
2018-10-12T02:24:37.046Z,57.70
2018-10-12T02:27:24.888Z,57.60
2018-10-12T02:30:01.397Z,57.90
2018-10-12T02:48:05.831Z,57.90
2018-10-12T02:59:29.152Z,58.10
2018-10-12T03:02:09.778Z,58.00
2018-10-12T03:04:52.261Z,58.20
2018-10-12T03:07:35.068Z,58.20
2018-10-12T03:10:23.620Z,58.40
2018-10-12T03:13:14.609Z,58.50
2018-10-12T03:16:10.560Z,58.50
2018-10-12T03:18:51.630Z,58.50
2018-10-12T03:24:21.460Z,58.50
2018-10-12T03:27:02.334Z,58.60
2018-10-12T03:29:52.556Z,58.50
2018-10-12T03:42:01.064Z,58.90
2018-10-12T03:44:36.101Z,58.90
2018-10-12T03:47:16.276Z,58.90
2018-10-12T03:49:51.987Z,58.90
2018-10-12T03:52:36.729Z,59.00
2018-10-12T03:55:19.337Z,58.90
2018-10-12T03:58:03.431Z,59.10
2018-10-12T04:00:40.085Z,59.30
2018-10-12T04:03:15.308Z,59.10
2018-10-12T04:05:48.307Z,59.50
2018-10-12T04:32:11.212Z,58.80
2018-10-12T04:34:56.912Z,59.00
2018-10-12T04:37:38.460Z,59.30
2018-10-12T04:40:24.677Z,59.60
2018-10-12T04:43:03.581Z,59.40
2018-10-12T04:45:59.337Z,59.60
2018-10-12T04:48:34.630Z,59.60
2018-10-12T04:51:08.822Z,59.60
2018-10-12T04:53:37.603Z,60.00
2018-10-12T04:56:10.102Z,59.80
2018-10-12T04:58:43.575Z,59.80
2018-10-12T05:10:12.105Z,60.60
2018-10-12T05:12:58.359Z,60.40
2018-10-12T05:15:33.081Z,60.30
2018-10-12T05:18:12.447Z,60.70
2018-10-12T05:20:43.785Z,60.10
2018-10-12T05:23:20.019Z,60.70
2018-10-12T05:25:59.795Z,60.60
2018-10-12T05:28:44.420Z,60.30
2018-10-12T05:31:18.103Z,60.90
2018-10-12T05:33:48.620Z,60.60
2018-10-12T05:36:29.294Z,60.50
2018-10-12T05:39:08.770Z,60.80
2018-10-12T05:41:48.121Z,61.10
2018-10-12T05:47:38.235Z,60.90
2018-10-12T05:50:27.673Z,60.60
2018-10-12T05:53:02.171Z,60.70
2018-10-12T05:55:31.190Z,61.00
2018-10-12T05:58:00.445Z,60.70
2018-10-12T06:06:20.476Z,60.80
2018-10-12T06:08:49.420Z,60.90
2018-10-12T06:11:18.774Z,60.90
2018-10-12T06:13:47.684Z,61.00
2018-10-12T06:16:18.123Z,60.70
2018-10-12T06:18:47.165Z,60.80
2018-10-12T06:21:15.948Z,60.60
2018-10-12T06:23:45.455Z,60.70
2018-10-12T06:26:14.880Z,60.50
2018-10-12T06:28:44.036Z,60.60
2018-10-12T06:31:13.590Z,60.50
2018-10-12T06:33:43.107Z,60.50
2018-10-12T06:36:11.824Z,60.50
2018-10-12T06:38:41.182Z,60.40
2018-10-12T06:41:18.188Z,60.30
2018-10-12T06:43:47.186Z,60.10
2018-10-12T06:46:16.929Z,60.10
2018-10-12T06:48:46.466Z,60.00
2018-10-12T06:51:15.877Z,60.00
2018-10-12T06:53:45.179Z,59.90
2018-10-12T06:56:14.542Z,59.80
2018-10-12T06:58:53.754Z,59.80
2018-10-12T07:01:31.082Z,59.80
2018-10-12T07:04:11.627Z,60.00
2018-10-12T07:06:54.520Z,59.70
2018-10-12T07:09:47.538Z,59.60
2018-10-12T07:12:20.300Z,59.50
2018-10-12T07:15:05.132Z,59.70
2018-10-12T07:20:44.812Z,59.30
2018-10-12T07:23:27.851Z,59.40
2018-10-12T07:26:02.517Z,59.20
2018-10-12T07:28:40.620Z,59.20
2018-10-12T07:31:20.723Z,59.10
2018-10-12T07:33:59.770Z,59.10
2018-10-12T07:36:36.574Z,58.90
2018-10-12T07:39:13.285Z,58.80
2018-10-12T07:41:49.590Z,58.60
2018-10-12T07:44:25.736Z,58.50
2018-10-12T07:47:04.633Z,58.50
2018-10-12T07:53:05.590Z,58.40
2018-10-12T07:55:52.423Z,57.70
2018-10-12T07:58:31.792Z,57.80
2018-10-12T08:01:15.888Z,57.40
2018-10-12T08:12:24.333Z,56.90
2018-10-12T08:14:54.104Z,57.00
2018-10-12T08:17:23.527Z,56.80
2018-10-12T08:19:53.449Z,56.50
2018-10-12T08:22:23.309Z,56.30
2018-10-12T08:24:52.870Z,56.20
2018-10-12T08:27:22.870Z,56.30
2018-10-12T08:29:52.508Z,56.00
2018-10-12T08:32:22.362Z,56.00
2018-10-12T08:34:51.390Z,55.90
2018-10-12T08:37:34.678Z,55.70
2018-10-12T09:20:14.430Z,54.80
2018-10-12T09:22:53.588Z,54.50
2018-10-12T09:28:22.503Z,54.20
2018-10-12T09:31:05.413Z,53.90
2018-10-12T09:36:36.743Z,53.80
2018-10-12T09:39:21.458Z,53.80
2018-10-12T09:42:05.234Z,53.10
2018-10-12T09:47:17.630Z,52.60
2018-10-12T09:49:47.619Z,52.20
2018-10-12T09:52:27.795Z,52.10
2018-10-12T09:55:05.411Z,52.00
2018-10-12T09:57:42.469Z,51.90
2018-10-12T10:00:23.810Z,51.70
2018-10-12T10:14:22.201Z,51.40
2018-10-12T10:17:02.973Z,50.70
2018-10-12T10:19:46.739Z,50.50
2018-10-12T10:22:24.342Z,50.20
2018-10-12T10:25:09.733Z,50.20
2018-10-12T10:30:40.214Z,49.80
2018-10-12T10:33:15.630Z,49.50
2018-10-12T10:36:05.004Z,49.60
2018-10-12T10:53:20.462Z,49.10
2018-10-12T10:56:38.227Z,48.70
2018-10-12T10:59:15.803Z,48.20
2018-10-12T11:01:55.107Z,47.70
2018-10-12T11:04:41.261Z,47.90
2018-10-12T11:07:28.209Z,47.70
2018-10-12T11:26:18.346Z,46.80
2018-10-12T11:44:30.582Z,46.20
2018-10-12T11:51:35.316Z,39.50
2018-10-12T11:54:14.664Z,38.50
2018-10-12T11:56:58.590Z,37.10
2018-10-12T11:59:56.346Z,36.20
2018-10-12T12:37:30.612Z,30.70
2018-10-12T12:45:58.147Z,29.70
2018-10-12T12:48:41.926Z,29.40
2018-10-12T12:51:21.781Z,29.30
2018-10-12T12:53:58.830Z,29.10
2018-10-12T12:56:49.708Z,29.10
2018-10-12T12:59:51.078Z,29.30
2018-10-12T13:02:20.057Z,29.20
2018-10-12T13:04:50.272Z,29.30
2018-10-12T13:20:39.403Z,29.10
2018-10-12T13:28:46.859Z,30.60
2018-10-12T13:31:15.909Z,31.50
2018-10-12T13:33:46.651Z,32.40
2018-10-12T13:36:22.429Z,32.90
2018-10-12T13:38:53.814Z,32.80
2018-10-12T13:41:26.100Z,32.30
2018-10-12T13:43:56.690Z,31.80
2018-10-12T13:46:39.121Z,31.40
2018-10-12T13:49:13.154Z,30.80
2018-10-12T13:51:43.216Z,30.30
2018-10-12T13:54:26.899Z,30.50
2018-10-12T13:57:03.534Z,31.10
2018-10-12T13:59:55.012Z,32.10
2018-10-12T14:02:56.346Z,32.80
2018-10-12T14:16:22.084Z,35.60
2018-10-12T14:22:08.574Z,36.90
2018-10-12T14:24:57.928Z,37.20
2018-10-12T14:27:35.186Z,37.70
2018-10-12T14:30:13.231Z,38.00
2018-10-12T14:38:45.129Z,38.90
2018-10-12T14:41:36.126Z,39.10
2018-10-12T14:44:36.200Z,39.30
2018-10-12T14:47:16.517Z,39.60
2018-10-12T14:50:03.439Z,39.80
2018-10-12T14:52:52.013Z,40.00
2018-10-12T14:58:52.552Z,40.40
2018-10-12T15:01:59.440Z,40.60
2018-10-12T15:10:42.270Z,40.90
2018-10-12T15:13:24.630Z,41.20
2018-10-12T15:25:30.099Z,42.30
2018-10-12T22:04:57.039Z,54.90
2018-10-12T22:19:29.737Z,55.70
2018-10-12T22:27:14.262Z,55.70
2018-10-12T22:40:31.080Z,56.50
2018-10-12T22:43:07.903Z,56.90
2018-10-12T22:45:53.946Z,57.00
2018-10-12T22:52:32.630Z,57.60
2018-10-12T23:11:44.390Z,57.80
2018-10-12T23:18:12.311Z,57.30
2018-10-12T23:21:05.027Z,57.30
2018-10-12T23:24:05.616Z,57.70
2018-10-12T23:26:55.404Z,57.80
2018-10-12T23:32:37.761Z,58.20
2018-10-12T23:35:43.765Z,58.60
2018-10-12T23:38:25.273Z,58.70
2018-10-12T23:44:01.617Z,58.80
2018-10-12T23:46:42.525Z,59.10
2018-10-12T23:49:20.572Z,59.10
2018-10-12T23:54:52.279Z,59.40
